createdAt,value
2019-05-18T00:01:18.317Z,1.20
2019-05-18T00:03:44.620Z,1.07
2019-05-18T00:06:10.918Z,1.05
2019-05-18T00:08:37.215Z,1.10
2019-05-18T00:11:03.641Z,1.05
2019-05-18T00:13:29.992Z,0.98
2019-05-18T00:15:56.367Z,1.02
2019-05-18T00:18:22.667Z,1.32
2019-05-18T00:20:48.977Z,1.00
2019-05-18T00:23:15.288Z,1.10
2019-05-18T00:25:41.749Z,1.30
2019-05-18T00:28:08.022Z,1.32
2019-05-18T00:30:34.319Z,1.22
2019-05-18T00:33:00.619Z,1.00
2019-05-18T00:35:27.280Z,1.12
2019-05-18T00:37:53.527Z,1.00
2019-05-18T00:40:19.859Z,1.12
2019-05-18T00:42:46.272Z,1.20
2019-05-18T00:45:12.667Z,0.88
2019-05-18T00:47:41.877Z,1.17
2019-05-18T00:50:07.112Z,1.10
2019-05-18T00:52:33.444Z,0.95
2019-05-18T00:54:59.750Z,1.10
2019-05-18T00:57:26.249Z,1.07
2019-05-18T00:59:52.555Z,0.90
2019-05-18T01:02:18.983Z,0.98
2019-05-18T01:04:45.415Z,1.20
2019-05-18T01:07:11.715Z,1.10
2019-05-18T01:09:38.023Z,0.85
2019-05-18T01:12:04.451Z,1.05
2019-05-18T01:14:30.754Z,1.20
2019-05-18T01:16:57.093Z,0.78
2019-05-18T01:19:23.400Z,1.30
2019-05-18T01:21:49.704Z,1.10
2019-05-18T01:24:16.008Z,1.20
2019-05-18T01:26:42.308Z,1.07
2019-05-18T01:29:08.632Z,1.10
2019-05-18T01:31:35.135Z,1.15
2019-05-18T01:34:01.431Z,1.20
2019-05-18T01:36:27.735Z,1.42
2019-05-18T01:38:54.135Z,0.88
2019-05-18T01:41:20.460Z,1.20
2019-05-18T01:43:46.762Z,1.05
2019-05-18T01:46:13.279Z,1.07
2019-05-18T01:48:39.577Z,1.00
2019-05-18T01:51:05.888Z,1.00
2019-05-18T01:53:32.423Z,1.00
2019-05-18T01:55:58.727Z,1.17
2019-05-18T01:58:25.035Z,1.32
2019-05-18T02:00:51.340Z,1.00
2019-05-18T02:03:17.850Z,1.00
2019-05-18T02:05:44.178Z,1.05
2019-05-18T02:08:10.476Z,1.00
2019-05-18T02:10:36.887Z,1.07
2019-05-18T02:13:03.395Z,1.17
2019-05-18T02:15:29.791Z,1.00
2019-05-18T02:17:56.126Z,1.20
2019-05-18T02:20:22.422Z,1.17
2019-05-18T02:22:49.009Z,1.07
2019-05-18T02:25:15.311Z,1.25
2019-05-18T02:27:41.820Z,1.10
2019-05-18T02:30:08.325Z,1.30
2019-05-18T02:32:34.689Z,1.10
2019-05-18T02:35:00.948Z,0.90
2019-05-18T02:37:27.366Z,1.22
2019-05-18T02:39:55.603Z,1.20
2019-05-18T02:42:22.209Z,1.10
2019-05-18T02:44:48.611Z,1.02
2019-05-18T02:47:14.942Z,1.40
2019-05-18T02:49:41.348Z,1.10
2019-05-18T02:52:07.765Z,1.10
2019-05-18T02:54:34.168Z,1.35
2019-05-18T02:57:00.499Z,1.50
2019-05-18T02:59:27.058Z,1.20
2019-05-18T03:01:53.452Z,0.95
2019-05-18T03:04:19.772Z,1.07
2019-05-18T03:06:46.070Z,1.87
2019-05-18T03:09:12.482Z,1.47
2019-05-18T03:11:41.872Z,1.52
2019-05-18T03:14:16.123Z,1.80
2019-05-18T03:16:42.699Z,1.50
2019-05-18T03:19:10.690Z,1.35
2019-05-18T03:21:37.287Z,1.55
2019-05-18T03:24:03.608Z,2.90
2019-05-18T03:26:29.903Z,2.08
2019-05-18T03:28:56.225Z,1.75
2019-05-18T03:31:22.574Z,2.30
2019-05-18T03:33:49.012Z,1.67
2019-05-18T03:36:15.436Z,2.12
2019-05-18T03:38:41.735Z,2.47
2019-05-18T03:41:08.312Z,1.42
2019-05-18T03:43:34.819Z,2.20
2019-05-18T03:46:01.121Z,2.30
2019-05-18T03:48:27.548Z,2.37
2019-05-18T03:50:53.845Z,2.17
2019-05-18T03:53:20.176Z,2.33
2019-05-18T03:55:46.475Z,2.70
2019-05-18T03:58:12.922Z,1.77
2019-05-18T04:00:39.264Z,2.27
2019-05-18T04:03:05.868Z,2.02
2019-05-18T04:05:33.021Z,2.17
2019-05-18T04:07:59.353Z,1.82
2019-05-18T04:10:26.251Z,1.95
2019-05-18T04:12:52.973Z,1.72
2019-05-18T04:15:19.386Z,1.80
2019-05-18T04:17:45.715Z,2.08
2019-05-18T04:20:12.008Z,2.20
2019-05-18T04:22:38.313Z,1.82
2019-05-18T04:25:04.732Z,1.90
2019-05-18T04:27:31.039Z,1.40
2019-05-18T04:29:57.358Z,1.70
2019-05-18T04:32:23.663Z,1.40
2019-05-18T04:34:49.975Z,1.80
2019-05-18T04:37:16.276Z,1.50
2019-05-18T04:39:42.688Z,1.52
2019-05-18T04:42:09.028Z,2.10
2019-05-18T04:44:35.328Z,2.08
2019-05-18T04:47:01.724Z,1.87
2019-05-18T04:49:28.032Z,1.70
2019-05-18T04:51:54.336Z,1.55
2019-05-18T04:54:20.673Z,1.77
2019-05-18T04:56:46.968Z,2.02
2019-05-18T04:59:13.286Z,1.82
2019-05-18T05:01:39.679Z,1.90
2019-05-18T05:04:05.998Z,1.40
2019-05-18T05:06:32.535Z,1.98
2019-05-18T05:08:58.827Z,1.70
2019-05-18T05:11:25.253Z,1.40
2019-05-18T05:13:51.560Z,1.62
2019-05-18T05:16:17.865Z,1.87
2019-05-18T05:18:44.407Z,1.42
2019-05-18T05:21:10.810Z,1.60
2019-05-18T05:23:37.112Z,1.67
2019-05-18T05:26:03.527Z,1.50
2019-05-18T05:28:29.834Z,1.20
2019-05-18T05:30:56.167Z,1.35
2019-05-18T05:33:22.568Z,1.60
2019-05-18T05:35:48.872Z,1.32
2019-05-18T05:38:15.220Z,1.60
2019-05-18T05:40:41.759Z,1.60
2019-05-18T05:43:08.027Z,1.37
2019-05-18T05:45:34.444Z,1.27
2019-05-18T05:48:01.061Z,1.25
2019-05-18T05:50:36.193Z,1.35
2019-05-18T05:52:55.791Z,1.50
2019-05-18T05:55:22.191Z,1.40
2019-05-18T05:57:48.499Z,1.60
2019-05-18T06:00:14.911Z,1.42
2019-05-18T06:02:41.256Z,1.32
2019-05-18T06:05:07.579Z,1.20
2019-05-18T06:07:33.979Z,1.20
2019-05-18T06:10:00.494Z,1.32
2019-05-18T06:12:26.775Z,1.15
2019-05-18T06:14:53.081Z,1.27
2019-05-18T06:17:19.407Z,1.15
2019-05-18T06:19:45.720Z,1.20
2019-05-18T06:22:12.019Z,1.30
2019-05-18T06:24:38.427Z,1.37
2019-05-18T06:27:04.831Z,1.40
2019-05-18T06:29:31.163Z,1.30
2019-05-18T06:31:57.694Z,1.20
2019-05-18T06:34:24.111Z,1.47
2019-05-18T06:36:50.425Z,1.20
2019-05-18T06:39:16.823Z,1.30
2019-05-18T06:41:43.268Z,1.10
2019-05-18T06:44:09.792Z,1.30
2019-05-18T06:46:36.102Z,1.47
2019-05-18T06:49:02.666Z,1.07
2019-05-18T06:51:29.075Z,1.25
2019-05-18T06:53:55.619Z,1.25
2019-05-18T06:56:22.055Z,1.30
2019-05-18T06:58:48.366Z,1.10
2019-05-18T07:01:14.683Z,1.05
2019-05-18T07:03:41.043Z,0.90
2019-05-18T07:06:07.473Z,1.10
2019-05-18T07:08:35.509Z,1.10
2019-05-18T07:11:02.017Z,1.30
2019-05-18T07:13:28.928Z,1.20
2019-05-18T07:15:55.327Z,1.20
2019-05-18T07:18:21.852Z,1.20
2019-05-18T07:20:48.159Z,0.95
2019-05-18T07:23:14.569Z,1.20
2019-05-18T07:25:40.868Z,1.10
2019-05-18T07:28:07.283Z,1.02
2019-05-18T07:30:33.608Z,1.00
2019-05-18T07:33:00.118Z,1.20
2019-05-18T07:35:26.496Z,0.90
2019-05-18T07:37:53.014Z,1.17
2019-05-18T07:40:19.548Z,1.15
2019-05-18T07:42:48.321Z,1.10
2019-05-18T07:45:14.603Z,1.15
2019-05-18T07:47:41.082Z,1.00
2019-05-18T07:50:07.389Z,0.95
2019-05-18T07:52:33.792Z,0.80
2019-05-18T07:55:00.333Z,1.05
2019-05-18T07:57:26.648Z,0.90
2019-05-18T07:59:53.062Z,1.10
2019-05-18T08:02:19.367Z,0.90
2019-05-18T08:04:45.769Z,1.45
2019-05-18T08:07:12.139Z,1.07
2019-05-18T08:09:38.551Z,1.02
2019-05-18T08:12:04.965Z,0.80
2019-05-18T08:14:31.372Z,1.10
2019-05-18T08:16:57.821Z,0.90
2019-05-18T08:19:24.526Z,1.15
2019-05-18T08:21:53.599Z,1.02
2019-05-18T08:24:19.232Z,0.90
2019-05-18T08:26:45.531Z,1.10
2019-05-18T08:29:11.841Z,1.00
2019-05-18T08:31:38.224Z,0.95
2019-05-18T08:34:04.589Z,0.93
2019-05-18T08:36:30.994Z,1.00
2019-05-18T08:38:57.524Z,0.90
2019-05-18T08:41:23.841Z,1.00
2019-05-18T08:43:50.171Z,1.15
2019-05-18T08:46:16.580Z,0.93
2019-05-18T08:48:42.894Z,1.10
2019-05-18T08:51:09.435Z,1.07
2019-05-18T08:53:35.731Z,1.10
2019-05-18T08:56:02.062Z,0.82
2019-05-18T08:58:28.364Z,1.05
2019-05-18T09:00:54.679Z,1.10
2019-05-18T09:03:21.076Z,0.80
2019-05-18T09:05:47.494Z,1.30
2019-05-18T09:08:14.123Z,1.00
2019-05-18T09:10:40.437Z,1.07
2019-05-18T09:13:07.045Z,1.00
2019-05-18T09:15:33.469Z,0.88
2019-05-18T09:18:00.164Z,0.68
2019-05-18T09:20:26.488Z,0.80
2019-05-18T09:22:52.922Z,0.85
2019-05-18T09:25:19.219Z,0.90
2019-05-18T09:27:45.631Z,0.88
2019-05-18T09:30:12.332Z,0.85
2019-05-18T09:32:38.709Z,1.00
2019-05-18T09:35:05.599Z,0.85
2019-05-18T09:37:31.942Z,0.90
2019-05-18T09:39:58.572Z,0.80
2019-05-18T09:42:24.882Z,0.82
2019-05-18T09:44:51.306Z,0.70
2019-05-18T09:47:17.613Z,0.82
2019-05-18T09:49:44.052Z,0.70
2019-05-18T09:52:10.563Z,0.80
2019-05-18T09:54:36.867Z,0.78
2019-05-18T09:57:03.520Z,0.80
2019-05-18T09:59:29.831Z,0.80
2019-05-18T10:01:56.162Z,0.80
2019-05-18T10:04:22.460Z,0.93
2019-05-18T10:06:48.784Z,0.80
2019-05-18T10:09:15.212Z,0.70
2019-05-18T10:11:41.620Z,0.72
2019-05-18T10:14:07.941Z,0.80
2019-05-18T10:16:34.496Z,1.00
2019-05-18T10:19:00.797Z,0.90
2019-05-18T10:21:27.155Z,0.78
2019-05-18T10:23:53.435Z,1.30
2019-05-18T10:26:19.764Z,1.22
2019-05-18T10:28:46.866Z,1.30
2019-05-18T10:31:13.355Z,1.27
2019-05-18T10:33:39.656Z,1.10
2019-05-18T10:36:06.055Z,1.40
2019-05-18T10:38:33.283Z,1.85
2019-05-18T10:40:59.655Z,1.67
2019-05-18T10:43:26.008Z,1.67
2019-05-18T10:45:52.421Z,1.55
2019-05-18T10:48:18.716Z,1.62
2019-05-18T10:50:45.046Z,1.98
2019-05-18T10:53:11.588Z,1.98
2019-05-18T10:55:37.995Z,1.80
2019-05-18T10:58:04.328Z,1.45
2019-05-18T11:00:30.914Z,1.57
2019-05-18T11:02:57.359Z,1.50
2019-05-18T11:05:23.659Z,1.70
2019-05-18T11:07:50.026Z,2.02
2019-05-18T11:10:16.577Z,1.70
2019-05-18T11:12:43.125Z,1.72
2019-05-18T11:15:09.757Z,2.22
2019-05-18T11:17:36.056Z,1.30
2019-05-18T11:20:09.976Z,1.40
2019-05-18T11:22:36.261Z,1.70
2019-05-18T11:25:03.975Z,1.40
2019-05-18T11:27:30.295Z,1.72
2019-05-18T11:29:56.704Z,2.08
2019-05-18T11:32:23.015Z,1.70
2019-05-18T11:34:49.738Z,1.40
2019-05-18T11:37:16.254Z,1.55
2019-05-18T11:39:42.888Z,1.60
2019-05-18T11:42:09.768Z,1.45
2019-05-18T11:44:36.215Z,1.85
2019-05-18T11:47:03.522Z,1.85
2019-05-18T11:49:29.940Z,1.80
2019-05-18T11:51:56.269Z,1.32
2019-05-18T11:54:22.679Z,1.40
2019-05-18T11:56:49.214Z,1.50
2019-05-18T11:59:15.923Z,1.12
2019-05-18T12:01:42.442Z,1.02
2019-05-18T12:04:09.246Z,1.60
2019-05-18T12:06:35.764Z,1.20
2019-05-18T12:09:04.393Z,1.40
2019-05-18T12:11:30.954Z,1.42
2019-05-18T12:13:57.363Z,1.67
2019-05-18T12:16:23.831Z,1.42
2019-05-18T12:18:50.243Z,1.57
2019-05-18T12:21:16.696Z,1.65
2019-05-18T12:23:43.937Z,1.40
2019-05-18T12:26:10.230Z,1.35
2019-05-18T12:28:37.160Z,1.90
2019-05-18T12:31:03.561Z,1.50
2019-05-18T12:33:29.855Z,1.32
2019-05-18T12:35:56.619Z,1.62
2019-05-18T12:38:22.923Z,1.15
2019-05-18T12:40:49.354Z,3.12
2019-05-18T12:43:15.990Z,1.90
2019-05-18T12:45:42.260Z,1.80
2019-05-18T12:48:09.068Z,2.10
2019-05-18T12:50:35.466Z,1.32
2019-05-18T12:53:01.808Z,1.80
2019-05-18T12:55:28.320Z,2.20
2019-05-18T12:57:54.827Z,1.40
2019-05-18T13:00:21.465Z,1.70
2019-05-18T13:02:47.873Z,1.70
2019-05-18T13:05:14.707Z,2.12
2019-05-18T13:07:41.027Z,1.55
2019-05-18T13:10:07.728Z,1.50
2019-05-18T13:12:34.135Z,1.60
2019-05-18T13:15:00.549Z,1.45
2019-05-18T13:17:26.844Z,1.42
2019-05-18T13:19:53.429Z,1.20
2019-05-18T13:22:19.844Z,1.42
2019-05-18T13:24:46.981Z,1.17
2019-05-18T13:27:13.842Z,1.40
2019-05-18T13:29:40.678Z,1.42
2019-05-18T13:32:07.055Z,1.40
2019-05-18T13:34:33.646Z,1.10
2019-05-18T13:37:00.092Z,1.40
2019-05-18T13:39:26.714Z,1.30
2019-05-18T13:41:53.225Z,1.12
2019-05-18T13:44:19.625Z,1.00
2019-05-18T13:46:45.950Z,1.05
2019-05-18T13:49:12.351Z,1.25
2019-05-18T13:51:38.648Z,1.10
2019-05-18T13:54:05.221Z,1.50
2019-05-18T13:56:31.889Z,1.10
2019-05-18T13:58:58.319Z,0.90
2019-05-18T14:01:24.901Z,1.10
2019-05-18T14:03:51.225Z,0.93
2019-05-18T14:06:17.627Z,1.20
2019-05-18T14:08:43.939Z,1.07
2019-05-18T14:11:10.643Z,0.90
2019-05-18T14:13:37.056Z,1.27
2019-05-18T14:16:05.266Z,0.90
2019-05-18T14:18:31.807Z,0.82
2019-05-18T14:20:58.208Z,0.90
2019-05-18T14:23:24.749Z,0.98
2019-05-18T14:25:51.049Z,0.90
2019-05-18T14:28:17.358Z,1.10
2019-05-18T14:30:44.201Z,1.00
2019-05-18T14:33:10.726Z,0.93
2019-05-18T14:35:37.365Z,0.75
2019-05-18T14:38:03.772Z,1.05
2019-05-18T14:40:30.317Z,0.85
2019-05-18T14:42:56.656Z,0.90
2019-05-18T14:45:23.075Z,1.30
2019-05-18T14:47:49.504Z,1.00
2019-05-18T14:50:16.030Z,1.40
2019-05-18T14:52:42.546Z,1.52
2019-05-18T14:55:09.360Z,1.15
2019-05-18T14:57:36.308Z,1.27
2019-05-18T15:00:06.065Z,1.40
2019-05-18T15:02:32.908Z,1.30
2019-05-18T15:04:59.387Z,1.00
2019-05-18T15:07:25.816Z,1.00
2019-05-18T15:09:52.225Z,1.30
2019-05-18T15:12:18.822Z,0.93
2019-05-18T15:14:45.114Z,0.70
2019-05-18T15:17:11.432Z,1.05
2019-05-18T15:19:37.755Z,0.98
2019-05-18T15:22:04.155Z,1.30
2019-05-18T15:24:30.491Z,1.40
2019-05-18T15:26:56.814Z,1.40
2019-05-18T15:29:23.212Z,1.10
2019-05-18T15:31:49.638Z,1.07
2019-05-18T15:34:15.947Z,1.35
2019-05-18T15:36:42.391Z,1.22
2019-05-18T15:39:08.688Z,1.05
2019-05-18T15:41:35.097Z,1.42
2019-05-18T15:44:01.415Z,2.17
2019-05-18T15:46:27.949Z,1.60
2019-05-18T15:48:54.287Z,1.12
2019-05-18T15:51:21.708Z,1.35
2019-05-18T15:53:48.117Z,0.80
2019-05-18T15:56:15.072Z,0.70
2019-05-18T15:58:41.388Z,1.00
2019-05-18T16:01:07.716Z,0.90
2019-05-18T16:03:34.027Z,0.90
2019-05-18T16:06:00.335Z,0.80
2019-05-18T16:08:26.655Z,0.90
2019-05-18T16:10:53.098Z,1.00
2019-05-18T16:13:19.651Z,0.82
2019-05-18T16:15:46.117Z,0.88
2019-05-18T16:18:12.595Z,1.10
2019-05-18T16:20:38.902Z,1.00
2019-05-18T16:23:05.206Z,1.00
2019-05-18T16:25:31.523Z,0.60
2019-05-18T16:27:57.849Z,0.60
2019-05-18T16:30:24.169Z,0.57
2019-05-18T16:32:50.699Z,0.78
2019-05-18T16:35:17.008Z,0.80
2019-05-18T16:37:43.341Z,0.70
2019-05-18T16:40:09.731Z,0.80
2019-05-18T16:42:36.050Z,0.80
2019-05-18T16:45:04.698Z,0.82
2019-05-18T16:47:31.106Z,0.60
2019-05-18T16:50:00.237Z,0.80
2019-05-18T16:52:26.491Z,0.50
2019-05-18T16:54:52.827Z,0.65
2019-05-18T16:57:19.128Z,1.00
2019-05-18T16:59:45.424Z,0.70
2019-05-18T17:02:11.948Z,0.60
2019-05-18T17:04:38.243Z,1.02
2019-05-18T17:07:04.578Z,0.90
2019-05-18T17:09:31.009Z,1.05
2019-05-18T17:11:57.463Z,0.68
2019-05-18T17:14:23.898Z,1.20
2019-05-18T17:16:50.283Z,0.90
2019-05-18T17:19:16.611Z,0.70
2019-05-18T17:21:43.195Z,1.00
2019-05-18T17:24:10.747Z,0.65
2019-05-18T17:26:52.213Z,0.80
2019-05-18T17:29:10.786Z,0.60
2019-05-18T17:31:37.293Z,0.60
2019-05-18T17:34:03.639Z,0.50
2019-05-18T17:36:29.942Z,0.60
2019-05-18T17:38:56.436Z,0.50
2019-05-18T17:41:22.859Z,0.33
2019-05-18T17:43:49.273Z,0.85
2019-05-18T17:46:15.630Z,0.72
2019-05-18T17:48:42.071Z,0.88
2019-05-18T17:51:08.633Z,0.70
2019-05-18T17:53:35.050Z,1.20
2019-05-18T17:56:02.120Z,0.98
2019-05-18T17:58:28.415Z,0.62
2019-05-18T18:00:54.728Z,0.50
2019-05-18T18:03:21.204Z,1.50
2019-05-18T18:05:47.906Z,0.90
2019-05-18T18:08:14.244Z,0.90
2019-05-18T18:10:40.564Z,0.85
2019-05-18T18:13:09.482Z,0.57
2019-05-18T18:15:35.100Z,0.78
2019-05-18T18:18:01.543Z,0.55
2019-05-18T18:20:27.873Z,0.42
2019-05-18T18:22:54.171Z,0.60
2019-05-18T18:25:21.134Z,0.53
2019-05-18T18:27:47.660Z,0.40
2019-05-18T18:30:14.096Z,0.30
2019-05-18T18:32:40.391Z,0.30
2019-05-18T18:35:06.866Z,0.20
2019-05-18T18:37:33.175Z,0.20
2019-05-18T18:39:59.722Z,0.33
2019-05-18T18:42:26.239Z,0.25
2019-05-18T18:44:52.473Z,0.30
2019-05-18T18:47:18.771Z,0.42
2019-05-18T18:49:45.196Z,0.30
2019-05-18T18:52:11.710Z,0.10
2019-05-18T18:54:38.035Z,0.15
2019-05-18T18:57:05.047Z,0.20
2019-05-18T18:59:31.360Z,0.13
2019-05-18T19:01:57.902Z,0.15
2019-05-18T19:04:24.301Z,0.20
2019-05-18T19:06:50.732Z,0.20
2019-05-18T19:09:17.036Z,0.13
2019-05-18T19:11:43.443Z,0.10
2019-05-18T19:14:10.016Z,0.20
2019-05-18T19:16:36.376Z,0.10
2019-05-18T19:19:03.763Z,0.20
2019-05-18T19:21:30.740Z,0.10
2019-05-18T19:23:57.124Z,0.20
2019-05-18T19:26:23.568Z,0.10
2019-05-18T19:28:50.109Z,0.05
2019-05-18T19:31:16.828Z,0.13
2019-05-18T19:33:44.627Z,0.17
2019-05-18T19:36:11.257Z,0.20
2019-05-18T19:38:38.007Z,0.30
2019-05-18T19:41:04.323Z,0.17
2019-05-18T19:43:30.656Z,0.00
2019-05-18T19:45:57.061Z,0.00
2019-05-18T19:48:23.466Z,0.13
2019-05-18T19:50:49.858Z,0.10
2019-05-18T19:53:16.266Z,0.30
2019-05-18T19:55:42.596Z,0.10
2019-05-18T19:58:09.618Z,0.10
2019-05-18T20:00:35.936Z,0.10
2019-05-18T20:03:02.242Z,0.00
2019-05-18T20:05:28.754Z,0.20
2019-05-18T20:07:55.116Z,0.45
2019-05-18T20:10:21.639Z,0.50
2019-05-18T20:12:47.943Z,0.30
2019-05-18T20:15:15.270Z,0.65
2019-05-18T20:17:41.569Z,1.57
2019-05-18T20:20:08.009Z,1.20
2019-05-18T20:22:34.415Z,1.00
2019-05-18T20:25:00.714Z,0.85
2019-05-18T20:27:27.023Z,1.35
2019-05-18T20:29:53.423Z,0.60
2019-05-18T20:32:19.867Z,0.60
2019-05-18T20:34:46.274Z,0.72
2019-05-18T20:37:12.571Z,0.60
2019-05-18T20:39:38.875Z,1.00
2019-05-18T20:42:05.183Z,0.60
2019-05-18T20:44:31.622Z,0.50
2019-05-18T20:46:58.153Z,0.42
2019-05-18T20:49:24.756Z,0.60
2019-05-18T20:51:51.179Z,0.53
2019-05-18T20:54:17.581Z,0.85
2019-05-18T20:56:43.908Z,0.88
2019-05-18T20:59:10.220Z,0.60
2019-05-18T21:01:36.531Z,0.57
2019-05-18T21:04:03.183Z,1.35
2019-05-18T21:06:29.493Z,0.70
2019-05-18T21:08:55.798Z,0.80
2019-05-18T21:11:22.207Z,0.82
2019-05-18T21:13:48.699Z,0.62
2019-05-18T21:16:14.989Z,0.70
2019-05-18T21:18:41.399Z,0.60
2019-05-18T21:21:07.805Z,0.50
2019-05-18T21:23:34.206Z,0.42
2019-05-18T21:26:00.759Z,0.50
2019-05-18T21:28:27.055Z,0.80
2019-05-18T21:30:53.458Z,0.70
2019-05-18T21:33:19.783Z,0.60
2019-05-18T21:35:46.079Z,0.50
2019-05-18T21:38:12.394Z,0.70
2019-05-18T21:40:38.703Z,0.80
2019-05-18T21:43:05.366Z,0.80
2019-05-18T21:45:31.646Z,0.60
2019-05-18T21:47:57.942Z,0.70
2019-05-18T21:50:24.359Z,0.90
2019-05-18T21:52:50.667Z,0.80
2019-05-18T21:55:17.071Z,0.80
2019-05-18T21:57:43.469Z,0.85
2019-05-18T22:00:09.789Z,1.05
2019-05-18T22:02:36.491Z,0.82
2019-05-18T22:05:04.030Z,0.90
2019-05-18T22:07:30.332Z,1.10
2019-05-18T22:09:56.760Z,0.80
2019-05-18T22:12:23.171Z,0.90
2019-05-18T22:14:49.785Z,0.80
2019-05-18T22:17:16.332Z,0.90
2019-05-18T22:19:42.855Z,1.10
2019-05-18T22:22:09.174Z,1.35
2019-05-18T22:24:35.590Z,1.22
2019-05-18T22:27:02.681Z,1.10
2019-05-18T22:29:29.092Z,1.10
2019-05-18T22:31:55.803Z,1.00
2019-05-18T22:34:22.127Z,0.75
2019-05-18T22:36:48.837Z,1.30
2019-05-18T22:39:15.086Z,1.20
2019-05-18T22:41:41.601Z,1.15
2019-05-18T22:44:07.992Z,1.00
2019-05-18T22:46:34.311Z,1.10
2019-05-18T22:49:00.611Z,1.10
2019-05-18T22:51:26.939Z,1.00
2019-05-18T22:53:53.257Z,1.10
2019-05-18T22:56:19.646Z,1.00
2019-05-18T22:58:46.075Z,1.30
2019-05-18T23:01:12.658Z,1.25
2019-05-18T23:03:39.039Z,1.20
2019-05-18T23:06:05.339Z,1.10
2019-05-18T23:08:31.652Z,1.10
2019-05-18T23:10:57.972Z,1.30
2019-05-18T23:13:24.283Z,1.50
2019-05-18T23:15:50.729Z,1.22
2019-05-18T23:18:17.019Z,0.98
2019-05-18T23:20:43.324Z,1.20
2019-05-18T23:23:09.645Z,1.30
2019-05-18T23:25:35.941Z,1.20
2019-05-18T23:28:02.415Z,1.22
2019-05-18T23:30:28.675Z,1.22
2019-05-18T23:32:54.982Z,1.45
2019-05-18T23:35:21.509Z,1.32
2019-05-18T23:37:47.807Z,1.50
2019-05-18T23:40:14.739Z,1.45
2019-05-18T23:42:41.051Z,1.40
2019-05-18T23:45:07.351Z,1.30
2019-05-18T23:47:33.784Z,1.47
2019-05-18T23:50:00.095Z,1.32
2019-05-18T23:52:26.453Z,1.45
2019-05-18T23:54:52.875Z,1.32
2019-05-18T23:57:19.300Z,1.20
2019-05-18T23:59:45.728Z,1.60
